Time;durP1;ratioP1;P1;durP2;ratioP2;P2;SDS_P1;SDS_P2;PMS_P1;PMS_P2;Temp;Humidity;BMP_temperature;BMP_pressure;BME280_temperature;BME280_humidity;BME280_pressure;Samples;Min_cycle;Max_cycle;Signal;HPM_P1;HPM_P2
2022/06/13 00:01:11;;;;;;;9.68;2.42;;;15.50;86.90;;;;;;4966469;28;20079;-60
2022/06/13 00:03:38;;;;;;;10.10;1.92;;;15.50;88.10;;;;;;4966485;28;20479;-60
2022/06/13 00:06:05;;;;;;;7.70;1.98;;;15.50;89.80;;;;;;4992904;28;20046;-60
2022/06/13 00:08:32;;;;;;;6.53;1.70;;;15.40;88.70;;;;;;4967344;28;20084;-60
2022/06/13 00:10:59;;;;;;;12.18;1.90;;;15.40;88.80;;;;;;4969518;28;20074;-60
2022/06/13 00:13:26;;;;;;;7.43;1.65;;;15.30;89.50;;;;;;4969330;28;20590;-60
2022/06/13 00:15:53;;;;;;;4.57;1.23;;;15.20;90.10;;;;;;4969064;28;20137;-60
2022/06/13 00:18:19;;;;;;;8.32;1.73;;;15.20;91.00;;;;;;4968959;28;20081;-60
2022/06/13 00:20:46;;;;;;;14.95;2.72;;;15.20;90.70;;;;;;4969258;28;20058;-61
2022/06/13 00:23:13;;;;;;;6.28;1.77;;;15.10;91.30;;;;;;4984083;28;20129;-60
2022/06/13 00:25:40;;;;;;;11.50;2.63;;;15.10;92.30;;;;;;4968585;28;20163;-60
2022/06/13 00:28:07;;;;;;;10.48;1.80;;;15.10;91.60;;;;;;4969231;28;20121;-60
2022/06/13 00:30:33;;;;;;;7.20;1.83;;;15.10;91.50;;;;;;4968829;28;20078;-60
2022/06/13 00:33:00;;;;;;;6.18;1.65;;;15.10;92.00;;;;;;4969154;28;20662;-61
2022/06/13 00:35:27;;;;;;;7.28;2.13;;;15.10;92.10;;;;;;4968841;28;20043;-60
2022/06/13 00:37:53;;;;;;;7.63;1.77;;;15.00;92.20;;;;;;4968949;28;20050;-60
2022/06/13 00:40:22;;;;;;;7.35;1.75;;;15.00;93.00;;;;;;4969018;28;20746;-60
2022/06/13 00:42:48;;;;;;;6.60;1.83;;;15.00;93.00;;;;;;4968600;28;20237;-60
2022/06/13 00:45:26;;;;;;;5.55;1.75;;;14.90;94.00;;;;;;4965249;28;20134;-60
2022/06/13 00:47:54;;;;;;;5.50;1.50;;;14.90;94.60;;;;;;4968900;28;20137;-60
2022/06/13 00:50:25;;;;;;;8.35;1.63;;;14.80;94.10;;;;;;4968789;28;20057;-60
2022/06/13 00:53:06;;;;;;;9.98;2.40;;;14.80;95.00;;;;;;4964715;28;20085;-60
2022/06/13 00:55:37;;;;;;;5.07;1.50;;;14.70;95.10;;;;;;4968744;28;20039;-60
2022/06/13 00:58:04;;;;;;;6.05;1.65;;;14.80;94.00;;;;;;4967396;28;20074;-60
2022/06/13 01:00:31;;;;;;;7.00;1.73;;;14.80;94.00;;;;;;4967212;28;20071;-60
2022/06/13 01:02:58;;;;;;;4.43;1.40;;;14.80;93.80;;;;;;4967451;28;20043;-61
2022/06/13 01:05:26;;;;;;;6.95;1.88;;;14.80;93.90;;;;;;4967353;28;20142;-61
2022/06/13 01:07:53;;;;;;;6.07;1.70;;;14.90;93.90;;;;;;4999650;28;20073;-60
2022/06/13 01:13:07;;;;;;;9.23;1.77;;;14.80;94.10;;;;;;4961981;28;20167;-60
2022/06/13 01:15:59;;;;;;;6.55;1.85;;;14.70;94.70;;;;;;4998064;28;20085;-60
2022/06/13 01:18:32;;;;;;;3.75;1.48;;;14.50;96.40;;;;;;4998253;28;20524;-60
2022/06/13 01:21:21;;;;;;;6.03;1.63;;;14.50;95.90;;;;;;4968689;28;20497;-64
2022/06/13 01:24:03;;;;;;;6.10;1.98;;;14.50;96.90;;;;;;4968892;28;20137;-60
2022/06/13 01:26:52;;;;;;;5.25;1.65;;;14.40;96.10;;;;;;4998719;28;20074;-60
2022/06/13 01:29:32;;;;;;;9.70;1.30;;;14.40;97.30;;;;;;4974522;28;20050;-60
2022/06/13 01:32:34;;;;;;;4.55;1.92;;;14.50;96.50;;;;;;4968656;28;20180;-60
2022/06/13 01:35:06;;;;;;;5.75;1.83;;;14.50;97.40;;;;;;4996738;28;20129;-60
2022/06/13 01:37:33;;;;;;;12.15;1.65;;;14.50;96.20;;;;;;4968130;28;20050;-60
2022/06/13 01:40:27;;;;;;;7.50;1.67;;;14.50;96.20;;;;;;4965032;28;20532;-60
2022/06/13 01:43:04;;;;;;;9.77;1.42;;;14.40;96.00;;;;;;4960142;28;20051;-60
2022/06/13 01:45:31;;;;;;;7.20;1.73;;;14.40;97.40;;;;;;4966504;28;20047;-60
2022/06/13 01:48:02;;;;;;;6.07;2.10;;;14.30;96.60;;;;;;4960642;28;20047;-60
2022/06/13 01:50:36;;;;;;;7.63;1.77;;;14.30;96.70;;;;;;4966779;28;20141;-60
2022/06/13 01:53:28;;;;;;;6.00;2.05;;;14.30;97.10;;;;;;4966758;28;20569;-60
2022/06/13 01:56:08;;;;;;;8.02;2.75;;;14.20;98.80;;;;;;4996312;28;20154;-60
2022/06/13 01:58:44;;;;;;;11.43;1.75;;;14.20;98.80;;;;;;4996066;28;20090;-60
2022/06/13 02:01:25;;;;;;;8.20;1.77;;;14.20;98.30;;;;;;4966236;28;20043;-60
2022/06/13 02:04:07;;;;;;;11.60;3.45;;;14.20;99.00;;;;;;4996352;28;20075;-60
2022/06/13 02:06:37;;;;;;;10.90;1.95;;;14.20;99.30;;;;;;4962731;28;20503;-61
2022/06/13 02:09:19;;;;;;;8.02;2.00;;;14.20;98.30;;;;;;4647801;28;10000584;-60
2022/06/13 02:11:48;;;;;;;10.88;1.73;;;14.20;99.80;;;;;;4970884;28;20109;-60
2022/06/13 02:14:31;;;;;;;10.52;2.78;;;14.20;98.90;;;;;;4995305;28;20122;-60
2022/06/13 02:17:03;;;;;;;14.30;2.83;;;14.10;99.90;;;;;;4960777;28;20046;-60
2022/06/13 02:20:02;;;;;;;8.13;1.83;;;14.00;99.90;;;;;;4967170;28;20533;-60
2022/06/13 02:22:43;;;;;;;12.23;2.70;;;13.80;99.90;;;;;;4963138;28;20138;-60
2022/06/13 02:25:45;;;;;;;7.30;2.17;;;13.80;99.90;;;;;;4999796;28;20086;-60
2022/06/13 02:28:32;;;;;;;8.68;2.45;;;13.90;99.90;;;;;;4970614;28;20082;-60
2022/06/13 02:31:12;;;;;;;10.55;2.78;;;13.90;99.90;;;;;;4970394;28;20137;-60
2022/06/13 02:34:00;;;;;;;11.75;1.88;;;13.80;99.90;;;;;;4970449;28;20078;-60
2022/06/13 02:36:50;;;;;;;11.60;2.20;;;13.70;99.90;;;;;;4982434;28;20495;-60
2022/06/13 02:39:27;;;;;;;11.70;3.20;;;13.60;99.90;;;;;;4999843;28;20080;-60
2022/06/13 02:42:22;;;;;;;13.25;2.53;;;13.60;99.90;;;;;;4999687;28;20074;-61
2022/06/13 02:45:09;;;;;;;;;;;13.70;99.90;;;;;;4967909;28;20553;-60
2022/06/13 02:47:52;;;;;;;11.55;2.80;;;13.70;99.90;;;;;;4947166;28;19972;-60
2022/06/13 02:50:29;;;;;;;10.60;2.92;;;13.60;99.90;;;;;;4971457;28;20145;-60
2022/06/13 02:53:05;;;;;;;12.40;2.67;;;13.60;99.90;;;;;;4996034;28;20542;-60
2022/06/13 02:55:40;;;;;;;13.43;2.58;;;13.60;99.90;;;;;;4971139;28;20046;-60
2022/06/13 02:58:31;;;;;;;5.15;2.05;;;13.60;99.90;;;;;;4986519;28;20042;-60
2022/06/13 03:01:03;;;;;;;10.00;2.00;;;13.60;99.90;;;;;;4998322;28;20137;-60
2022/06/13 03:03:42;;;;;;;11.82;3.85;;;13.60;99.90;;;;;;4971724;28;20101;-61
2022/06/13 03:06:22;;;;;;;8.80;1.95;;;13.60;99.90;;;;;;4971050;28;20574;-60
2022/06/13 03:08:59;;;;;;;8.23;2.03;;;13.60;99.90;;;;;;4968915;28;20093;-60
2022/06/13 03:11:46;;;;;;;12.15;2.90;;;13.60;99.90;;;;;;4969680;28;20070;-60
2022/06/13 03:14:18;;;;;;;12.25;2.88;;;13.60;99.90;;;;;;4964159;28;20051;-60
2022/06/13 03:16:49;;;;;;;10.27;2.60;;;13.60;99.90;;;;;;4969209;28;20133;-60
2022/06/13 03:19:23;;;;;;;7.75;2.25;;;13.50;99.90;;;;;;4966408;28;20122;-60
2022/06/13 03:21:58;;;;;;;5.85;2.67;;;13.60;99.90;;;;;;4999024;28;20094;-61
2022/06/13 03:24:52;;;;;;;10.65;3.15;;;13.50;99.90;;;;;;4969514;28;20130;-61
2022/06/13 03:27:28;;;;;;;14.35;3.47;;;13.40;99.90;;;;;;4978773;28;20043;-60
2022/06/13 03:30:16;;;;;;;10.98;2.47;;;13.30;99.90;;;;;;4998376;28;20078;-60
2022/06/13 03:35:40;;;;;;;10.20;3.10;;;13.20;99.90;;;;;;4981712;28;20473;-60
2022/06/13 03:38:08;;;;;;;6.63;2.67;;;13.10;99.90;;;;;;5001222;28;20133;-60
2022/06/13 03:40:36;;;;;;;8.90;3.08;;;13.00;99.90;;;;;;4969379;28;20142;-60
2022/06/13 03:43:36;;;;;;;10.30;3.00;;;13.00;99.90;;;;;;4970436;28;20074;-60
2022/06/13 03:46:05;;;;;;;13.20;4.90;;;13.00;99.90;;;;;;5000423;28;20043;-60
2022/06/13 03:48:38;;;;;;;5.85;2.65;;;13.00;99.90;;;;;;4970168;28;20105;-60
2022/06/13 03:51:09;;;;;;;12.70;3.22;;;13.00;99.90;;;;;;4969224;28;20171;-60
2022/06/13 03:53:54;;;;;;;13.35;3.28;;;12.90;99.90;;;;;;4968686;28;20061;-60
2022/06/13 03:56:23;;;;;;;8.27;2.13;;;12.90;99.90;;;;;;4968928;28;20130;-58
2022/06/13 03:58:59;;;;;;;14.82;3.00;;;13.00;99.90;;;;;;4969104;28;20142;-60
2022/06/13 04:01:51;;;;;;;9.43;2.38;;;13.00;99.90;;;;;;4969742;28;20536;-60
2022/06/13 04:04:20;;;;;;;8.15;2.15;;;12.90;99.90;;;;;;4966057;28;20050;-59
2022/06/13 04:06:47;;;;;;;11.40;4.03;;;12.90;99.90;;;;;;4969742;28;20529;-60
2022/06/13 04:09:15;;;;;;;8.45;2.63;;;12.90;99.90;;;;;;4970107;28;20086;-59
2022/06/13 04:12:00;;;;;;;9.25;2.78;;;12.90;99.90;;;;;;5000271;28;20047;-60
2022/06/13 04:14:50;;;;;;;10.60;2.88;;;12.90;99.90;;;;;;4969783;28;20078;-60
2022/06/13 04:17:24;;;;;;;22.63;7.70;;;13.00;99.90;;;;;;4967083;28;20093;-60
2022/06/13 04:19:59;;;;;;;10.30;2.55;;;13.00;99.90;;;;;;4968270;28;20458;-60
2022/06/13 04:22:38;;;;;;;9.63;2.58;;;13.00;99.90;;;;;;4965554;28;20137;-60
2022/06/13 04:25:14;;;;;;;16.25;2.50;;;12.90;99.90;;;;;;4969359;28;20085;-60
2022/06/13 04:27:55;;;;;;;8.18;2.50;;;13.00;99.90;;;;;;4965887;28;20078;-59
2022/06/13 04:30:24;;;;;;;15.57;3.95;;;13.00;99.90;;;;;;4968706;28;20133;-59
2022/06/13 04:33:10;;;;;;;11.68;2.80;;;12.90;99.90;;;;;;4968319;28;20113;-63
2022/06/13 04:35:37;;;;;;;11.35;2.42;;;13.00;99.90;;;;;;4981883;28;20074;-59
2022/06/13 04:38:04;;;;;;;10.57;3.55;;;13.00;99.90;;;;;;4969745;28;20051;-59
2022/06/13 04:40:33;;;;;;;7.35;3.00;;;12.90;99.90;;;;;;4967942;28;20118;-59
2022/06/13 04:43:00;;;;;;;20.67;2.83;;;13.00;99.90;;;;;;4974801;28;20432;-59
2022/06/13 04:45:29;;;;;;;11.65;2.72;;;13.00;99.90;;;;;;4967340;28;20097;-60
2022/06/13 04:47:56;;;;;;;14.32;3.08;;;13.00;99.90;;;;;;4967484;28;20082;-60
2022/06/13 04:50:37;;;;;;;9.38;2.88;;;13.10;99.90;;;;;;4969008;28;20129;-60
2022/06/13 04:53:05;;;;;;;12.40;3.45;;;13.20;99.90;;;;;;4968144;28;20145;-59
2022/06/13 04:55:40;;;;;;;15.55;3.15;;;13.10;99.90;;;;;;4967425;28;20073;-61
2022/06/13 04:58:23;;;;;;;11.63;3.78;;;13.10;99.90;;;;;;4967755;28;20138;-60
2022/06/13 05:00:50;;;;;;;11.38;3.00;;;13.20;99.90;;;;;;4975564;28;20142;-60
2022/06/13 05:03:21;;;;;;;11.40;2.83;;;13.30;99.90;;;;;;4981180;28;20113;-60
2022/06/13 05:05:52;;;;;;;16.05;3.53;;;13.20;99.90;;;;;;4992575;28;20130;-59
2022/06/13 05:08:27;;;;;;;17.38;3.25;;;13.20;99.90;;;;;;4999478;28;20566;-59
2022/06/13 05:10:56;;;;;;;10.57;2.90;;;13.20;99.90;;;;;;4968901;28;20070;-60
2022/06/13 05:13:23;;;;;;;15.38;3.05;;;13.30;99.90;;;;;;4998740;28;20138;-61
2022/06/13 05:15:54;;;;;;;9.68;2.80;;;13.30;99.90;;;;;;4998168;28;20047;-59
2022/06/13 05:18:27;;;;;;;12.27;2.92;;;13.40;99.90;;;;;;4967547;28;20149;-60
2022/06/13 05:21:00;;;;;;;11.50;2.80;;;13.40;99.90;;;;;;4968546;28;20074;-60
2022/06/13 05:23:49;;;;;;;17.90;3.25;;;13.50;99.90;;;;;;4968582;28;20070;-60
2022/06/13 05:26:15;;;;;;;13.65;3.30;;;13.40;99.90;;;;;;4968805;28;20481;-60
2022/06/13 05:28:42;;;;;;;8.32;3.05;;;13.40;99.90;;;;;;4967029;28;20082;-60
2022/06/13 05:31:18;;;;;;;7.85;2.30;;;13.40;99.90;;;;;;4968538;28;20137;-60
2022/06/13 05:33:46;;;;;;;11.57;2.80;;;13.40;99.90;;;;;;4967114;28;20601;-59
2022/06/13 05:36:16;;;;;;;12.68;2.70;;;13.40;99.90;;;;;;4968530;28;20125;-60
2022/06/13 05:38:49;;;;;;;8.52;2.63;;;13.40;99.90;;;;;;4968073;28;20078;-60
2022/06/13 05:41:16;;;;;;;6.55;2.13;;;13.40;99.90;;;;;;4955615;28;20081;-60
2022/06/13 05:43:42;;;;;;;8.93;2.40;;;13.40;99.90;;;;;;4968362;28;20584;-60
2022/06/13 05:46:26;;;;;;;11.18;2.78;;;13.30;99.90;;;;;;4962257;28;20042;-60
2022/06/13 05:48:53;;;;;;;11.13;3.25;;;13.30;99.90;;;;;;4965280;28;20072;-59
2022/06/13 05:51:20;;;;;;;13.50;2.72;;;13.40;99.90;;;;;;4968745;28;20083;-59
2022/06/13 05:53:46;;;;;;;5.38;1.83;;;13.50;99.90;;;;;;4968560;28;20098;-59
2022/06/13 05:56:13;;;;;;;6.28;2.80;;;13.50;99.90;;;;;;4960862;28;20194;-59
2022/06/13 05:58:40;;;;;;;12.02;2.58;;;13.50;99.90;;;;;;4968183;28;20130;-59
2022/06/13 06:01:07;;;;;;;10.15;2.22;;;13.60;99.90;;;;;;4971801;28;20050;-59
2022/06/13 06:03:34;;;;;;;6.18;1.70;;;13.60;99.90;;;;;;4971682;28;20058;-60
2022/06/13 06:06:01;;;;;;;6.65;1.65;;;13.60;99.90;;;;;;4972216;28;20502;-59
2022/06/13 06:08:33;;;;;;;7.70;2.10;;;13.70;99.90;;;;;;4971324;28;20141;-59
2022/06/13 06:11:00;;;;;;;9.25;1.70;;;13.80;99.90;;;;;;4971997;28;20049;-59
2022/06/13 06:13:27;;;;;;;8.85;1.77;;;13.90;99.90;;;;;;4972079;28;20500;-60
2022/06/13 06:15:55;;;;;;;7.95;2.13;;;13.90;99.90;;;;;;4971970;28;20051;-59
2022/06/13 06:18:22;;;;;;;5.35;2.05;;;14.00;99.90;;;;;;4970625;28;20302;-60
2022/06/13 06:20:49;;;;;;;8.07;1.98;;;14.00;99.90;;;;;;4971842;28;20094;-59
2022/06/13 06:23:15;;;;;;;15.85;2.90;;;14.10;99.90;;;;;;4971756;28;20097;-59
2022/06/13 06:25:42;;;;;;;7.00;1.92;;;14.20;99.90;;;;;;4971447;28;20871;-60
2022/06/13 06:28:13;;;;;;;5.30;1.52;;;14.20;99.90;;;;;;4970897;28;20125;-60
2022/06/13 06:30:40;;;;;;;4.60;1.60;;;14.30;99.90;;;;;;4993230;28;20517;-59
2022/06/13 06:33:09;;;;;;;8.32;1.73;;;14.30;99.90;;;;;;4971156;28;20043;-60
2022/06/13 06:35:36;;;;;;;8.77;2.15;;;14.30;99.90;;;;;;4971444;28;20134;-60
2022/06/13 06:38:06;;;;;;;5.80;1.42;;;14.30;99.90;;;;;;4971548;28;20219;-59
2022/06/13 06:40:33;;;;;;;4.60;1.27;;;14.40;99.90;;;;;;4971135;28;20082;-58
2022/06/13 06:42:59;;;;;;;4.20;1.30;;;14.50;99.90;;;;;;4970857;28;20378;-58
2022/06/13 06:45:26;;;;;;;6.45;1.35;;;14.70;99.90;;;;;;4970091;28;20290;-59
2022/06/13 06:47:54;;;;;;;2.55;1.17;;;14.80;99.90;;;;;;4969825;28;20115;-58
2022/06/13 06:50:23;;;;;;;4.10;1.70;;;14.80;99.90;;;;;;4970342;28;20137;-59
2022/06/13 06:52:50;;;;;;;6.78;1.30;;;14.90;99.90;;;;;;4970962;28;20073;-59
2022/06/13 07:01:01;;;;;;;7.30;1.83;;;15.20;99.90;;;;;;4967715;28;20094;-58
2022/06/13 07:03:29;;;;;;;3.92;1.50;;;15.20;99.90;;;;;;4966148;28;20043;-58
2022/06/13 07:05:56;;;;;;;5.63;1.30;;;15.30;99.90;;;;;;4967939;28;20039;-60
2022/06/13 07:08:23;;;;;;;5.18;1.33;;;15.30;99.90;;;;;;4968809;28;20105;-58
2022/06/13 07:10:49;;;;;;;4.47;1.75;;;15.40;99.90;;;;;;4967484;28;20093;-58
2022/06/13 07:13:17;;;;;;;5.80;1.88;;;15.40;99.90;;;;;;4970472;28;20057;-59
2022/06/13 07:15:48;;;;;;;6.90;2.55;;;15.50;99.90;;;;;;4970106;28;20039;-57
2022/06/13 07:18:15;;;;;;;4.40;1.92;;;15.60;99.90;;;;;;4968187;28;20093;-58
2022/06/13 07:20:42;;;;;;;5.47;1.65;;;15.60;99.90;;;;;;4969889;28;20047;-60
2022/06/13 07:23:09;;;;;;;2.45;1.00;;;15.70;99.90;;;;;;4969333;28;20098;-59
2022/06/13 07:25:36;;;;;;;6.20;1.27;;;15.70;99.90;;;;;;4969619;28;20138;-58
2022/06/13 07:28:03;;;;;;;2.97;1.10;;;15.80;99.90;;;;;;4984518;28;20090;-60
2022/06/13 07:30:30;;;;;;;5.70;1.95;;;15.80;99.90;;;;;;4968247;28;20113;-61
2022/06/13 07:32:57;;;;;;;5.45;1.73;;;15.90;99.90;;;;;;4969664;28;20404;-57
2022/06/13 07:35:24;;;;;;;7.55;2.20;;;16.00;99.90;;;;;;4969771;28;20132;-58
2022/06/13 07:40:37;;;;;;;5.32;1.48;;;15.90;99.90;;;;;;4969210;28;20137;-59
2022/06/13 07:43:04;;;;;;;6.63;1.67;;;15.80;99.90;;;;;;4969338;28;20047;-59
2022/06/13 07:45:34;;;;;;;5.43;1.10;;;16.00;99.90;;;;;;4968811;28;20094;-58
2022/06/13 07:48:21;;;;;;;6.75;1.65;;;16.00;99.90;;;;;;4963039;28;20138;-60
2022/06/13 07:50:47;;;;;;;8.18;1.42;;;16.00;99.80;;;;;;4969357;28;20134;-58
2022/06/13 07:53:14;;;;;;;5.32;1.13;;;16.10;99.90;;;;;;4970638;28;20142;-59
2022/06/13 07:56:01;;;;;;;3.88;1.23;;;16.30;99.60;;;;;;4969672;28;20046;-59
2022/06/13 07:58:33;;;;;;;4.00;0.93;;;16.30;99.00;;;;;;4967147;28;20561;-60
2022/06/13 08:01:00;;;;;;;5.20;1.10;;;16.30;99.20;;;;;;4999396;28;20126;-58
2022/06/13 08:03:29;;;;;;;8.73;1.30;;;16.40;99.10;;;;;;4968986;28;20104;-59
2022/06/13 08:05:57;;;;;;;6.47;1.77;;;16.60;97.50;;;;;;4998908;28;20051;-58
2022/06/13 08:08:24;;;;;;;9.82;2.60;;;16.80;98.50;;;;;;4968828;28;20043;-59
2022/06/13 08:10:51;;;;;;;4.47;1.10;;;16.90;98.20;;;;;;4969596;28;20058;-58
2022/06/13 08:13:19;;;;;;;4.10;0.80;;;17.00;98.20;;;;;;4968059;28;20134;-58
2022/06/13 08:15:46;;;;;;;9.13;1.38;;;16.90;97.40;;;;;;4967177;28;20046;-58
2022/06/13 08:18:13;;;;;;;3.65;1.10;;;16.90;96.70;;;;;;4968804;28;20082;-58
2022/06/13 08:20:41;;;;;;;4.47;1.10;;;16.80;97.30;;;;;;4968358;28;20050;-58
2022/06/13 08:23:09;;;;;;;4.38;1.00;;;16.80;97.40;;;;;;4967041;28;20122;-58
2022/06/13 08:25:37;;;;;;;5.03;1.10;;;16.90;96.80;;;;;;4967937;28;20094;-58
2022/06/13 08:28:04;;;;;;;1.65;1.33;;;16.70;96.80;;;;;;4968610;28;20054;-58
2022/06/13 08:30:43;;;;;;;3.97;1.30;;;16.80;96.60;;;;;;4968365;28;20526;-58
2022/06/13 08:33:10;;;;;;;5.65;1.20;;;16.80;96.30;;;;;;4999169;28;20085;-59
2022/06/13 08:35:37;;;;;;;7.53;1.02;;;16.90;96.90;;;;;;4968299;28;20177;-59
2022/06/13 08:38:04;;;;;;;3.88;1.00;;;17.00;96.30;;;;;;4968545;28;20180;-59
2022/06/13 08:40:51;;;;;;;8.98;1.40;;;17.10;95.60;;;;;;4968482;28;20043;-58
2022/06/13 08:43:24;;;;;;;2.10;0.82;;;17.20;94.80;;;;;;4960927;28;20051;-58
2022/06/13 08:45:53;;;;;;;2.75;1.05;;;17.20;94.80;;;;;;4968575;28;20055;-59
2022/06/13 08:48:31;;;;;;;6.07;1.30;;;17.10;95.10;;;;;;4967876;28;20050;-59
2022/06/13 08:51:08;;;;;;;5.30;0.90;;;17.10;94.60;;;;;;4967534;28;20101;-66
2022/06/13 08:53:56;;;;;;;3.67;0.75;;;17.30;95.00;;;;;;4967431;28;20498;-58
2022/06/13 08:56:25;;;;;;;2.55;0.90;;;17.40;93.60;;;;;;4981379;28;20670;-58
2022/06/13 08:58:57;;;;;;;3.97;1.08;;;17.50;94.50;;;;;;4965533;28;20656;-59
2022/06/13 09:01:30;;;;;;;1.15;0.70;;;17.70;93.40;;;;;;4966697;28;20542;-58
2022/06/13 09:04:28;;;;;;;2.30;0.88;;;17.80;93.60;;;;;;4967191;28;20085;-59
2022/06/13 09:07:07;;;;;;;1.70;0.70;;;17.90;93.20;;;;;;4965290;28;20046;-58
2022/06/13 09:10:04;;;;;;;5.63;1.02;;;17.80;92.10;;;;;;4965208;28;20054;-59
2022/06/13 09:12:34;;;;;;;8.10;0.90;;;17.80;91.40;;;;;;4965779;28;20051;-58
2022/06/13 09:15:09;;;;;;;3.95;0.80;;;17.80;92.30;;;;;;4960477;28;20126;-59
2022/06/13 09:17:41;;;;;;;3.40;1.02;;;17.70;90.20;;;;;;4966055;28;20079;-58
2022/06/13 09:20:14;;;;;;;7.07;1.25;;;17.70;92.00;;;;;;4966951;28;20157;-59
2022/06/13 09:23:05;;;;;;;4.82;1.10;;;17.80;91.50;;;;;;4968663;28;20129;-59
2022/06/13 09:25:55;;;;;;;3.50;1.10;;;17.90;90.70;;;;;;4968240;28;20049;-60
2022/06/13 09:28:47;;;;;;;6.95;1.30;;;17.90;90.20;;;;;;4961259;28;20141;-59
2022/06/13 09:31:22;;;;;;;5.72;1.30;;;17.80;90.30;;;;;;4966847;28;20074;-59
2022/06/13 09:33:57;;;;;;;5.47;0.95;;;17.60;89.90;;;;;;4966607;28;20047;-59
2022/06/13 09:36:33;;;;;;;2.10;0.90;;;17.60;90.90;;;;;;4967879;28;20038;-59
2022/06/13 09:39:06;;;;;;;2.45;0.70;;;17.90;91.20;;;;;;4966957;28;20047;-59
2022/06/13 09:41:45;;;;;;;6.35;0.85;;;18.30;88.90;;;;;;4967865;28;20055;-59
2022/06/13 09:44:19;;;;;;;1.23;0.70;;;18.20;89.80;;;;;;4968430;28;20085;-57
2022/06/13 09:47:15;;;;;;;5.35;1.17;;;18.20;89.10;;;;;;4960780;28;20047;-57
2022/06/13 09:49:41;;;;;;;4.15;0.95;;;18.10;87.00;;;;;;4997997;28;20557;-59
2022/06/13 09:52:31;;;;;;;4.32;1.13;;;18.30;88.60;;;;;;4968345;28;20130;-57
2022/06/13 09:55:21;;;;;;;3.53;1.08;;;18.50;85.80;;;;;;4966177;28;20096;-58
2022/06/13 09:58:28;;;;;;;2.88;0.90;;;18.60;84.60;;;;;;4967584;28;20494;-57
2022/06/13 10:01:19;;;;;;;3.65;0.88;;;18.60;82.60;;;;;;4962360;28;20533;-58
2022/06/13 10:04:10;;;;;;;5.10;0.98;;;18.70;82.70;;;;;;4965291;28;20119;-59
2022/06/13 10:06:47;;;;;;;2.70;0.98;;;18.50;82.00;;;;;;4966121;28;20461;-59
2022/06/13 10:09:30;;;;;;;4.40;1.15;;;18.50;84.90;;;;;;4965275;28;20462;-58
2022/06/13 10:12:25;;;;;;;3.67;1.30;;;18.60;83.90;;;;;;4966744;28;20070;-58
2022/06/13 10:15:45;;;;;;;2.92;1.08;;;18.80;83.20;;;;;;4982541;28;20082;-59
2022/06/13 10:18:25;;;;;;;7.72;2.08;;;18.80;84.00;;;;;;4906531;29;20080;-58
2022/06/13 10:20:55;;;;;;;6.43;1.10;;;19.50;83.80;;;;;;4894814;29;20059;-59
2022/06/13 10:23:38;;;;;;;3.40;0.98;;;19.50;84.00;;;;;;4929973;28;20074;-59
2022/06/13 10:26:34;;;;;;;2.13;0.82;;;19.20;79.70;;;;;;4967404;28;20466;-59
2022/06/13 10:29:19;;;;;;;1.38;0.68;;;19.20;79.70;;;;;;4960645;28;20142;-59
2022/06/13 10:32:04;;;;;;;1.52;0.65;;;19.00;79.80;;;;;;4966092;28;20085;-58
2022/06/13 10:34:53;;;;;;;6.70;1.42;;;18.80;80.60;;;;;;4966930;28;20082;-60
2022/06/13 10:37:33;;;;;;;4.97;0.63;;;18.80;81.10;;;;;;4967403;28;20070;-59
2022/06/13 10:40:02;;;;;;;3.85;1.00;;;18.50;79.50;;;;;;4963323;28;20532;-60
2022/06/13 10:42:30;;;;;;;5.38;1.35;;;18.60;83.00;;;;;;4965842;28;20069;-56
2022/06/13 10:44:57;;;;;;;9.10;1.10;;;18.90;83.60;;;;;;4965688;28;20138;-60
2022/06/13 10:47:28;;;;;;;3.67;0.98;;;19.00;82.70;;;;;;4965866;28;20049;-60
2022/06/13 10:50:01;;;;;;;9.00;1.52;;;19.00;78.90;;;;;;4967694;28;20511;-59
2022/06/13 10:52:31;;;;;;;3.53;0.88;;;19.00;78.60;;;;;;4966394;28;20135;-60
2022/06/13 10:55:08;;;;;;;4.45;1.05;;;19.00;80.10;;;;;;4997600;28;20109;-60
2022/06/13 10:57:40;;;;;;;7.63;1.40;;;19.20;81.00;;;;;;4993364;28;20129;-58
2022/06/13 11:00:15;;;;;;;3.25;0.95;;;19.40;79.60;;;;;;4957926;28;20089;-58
2022/06/13 11:02:42;;;;;;;3.58;0.85;;;19.60;78.50;;;;;;4970263;28;20046;-58
2022/06/13 11:05:18;;;;;;;1.83;1.02;;;19.60;79.80;;;;;;4970573;28;20051;-59
2022/06/13 11:07:49;;;;;;;2.50;1.23;;;19.50;77.90;;;;;;4969745;28;20050;-58
2022/06/13 11:10:50;;;;;;;5.32;1.08;;;19.40;78.50;;;;;;4999923;28;20106;-59
2022/06/13 11:13:26;;;;;;;2.95;1.58;;;19.50;76.70;;;;;;4996009;28;20113;-58
2022/06/13 11:24:41;;;;;;;6.68;1.58;;;19.80;75.60;;;;;;4968824;28;20078;-59
2022/06/13 11:27:39;;;;;;;3.83;1.17;;;19.80;76.30;;;;;;4967886;28;20082;-60
2022/06/13 11:30:28;;;;;;;1.33;1.13;;;19.70;76.60;;;;;;4968935;28;20053;-59
2022/06/13 11:33:10;;;;;;;4.20;1.33;;;19.60;76.90;;;;;;4970665;28;20130;-59
2022/06/13 11:35:47;;;;;;;7.63;1.10;;;19.50;74.70;;;;;;4963063;28;20043;-59
2022/06/13 11:38:27;;;;;;;4.63;1.08;;;19.40;75.60;;;;;;4984749;28;20074;-59
2022/06/13 11:41:11;;;;;;;3.13;1.20;;;19.40;74.30;;;;;;4970065;28;20085;-59
2022/06/13 11:44:02;;;;;;;3.03;1.27;;;19.70;75.30;;;;;;4969847;28;20086;-60
2022/06/13 11:46:41;;;;;;;3.60;1.52;;;20.10;75.40;;;;;;4969504;28;20166;-58
2022/06/13 11:49:14;;;;;;;8.27;1.63;;;20.40;72.30;;;;;;4995160;28;20078;-59
2022/06/13 11:52:06;;;;;;;5.75;1.33;;;20.40;72.60;;;;;;4969206;28;20141;-59
2022/06/13 11:54:41;;;;;;;3.67;1.42;;;20.40;70.50;;;;;;4969591;28;20043;-59
2022/06/13 11:57:16;;;;;;;8.88;1.25;;;20.30;72.70;;;;;;4969067;28;20130;-58
2022/06/13 11:59:54;;;;;;;3.55;1.20;;;20.50;72.20;;;;;;4984309;28;20093;-59
2022/06/13 12:02:26;;;;;;;7.22;1.60;;;20.50;73.90;;;;;;4995707;28;20503;-60
2022/06/13 12:04:54;;;;;;;5.03;1.47;;;20.50;73.90;;;;;;4969055;28;20290;-60
2022/06/13 12:07:29;;;;;;;3.78;1.20;;;20.30;73.70;;;;;;4969624;28;20081;-61
2022/06/13 12:09:57;;;;;;;2.97;1.30;;;20.00;72.80;;;;;;4969554;28;20093;-59
2022/06/13 12:12:26;;;;;;;3.70;1.20;;;20.20;73.50;;;;;;4968825;28;20078;-58
2022/06/13 12:14:53;;;;;;;4.88;0.95;;;20.40;72.70;;;;;;4968566;28;20129;-60
2022/06/13 12:17:30;;;;;;;4.18;1.30;;;20.30;72.60;;;;;;4967674;28;20061;-59
2022/06/13 12:20:27;;;;;;;4.78;1.15;;;20.40;70.70;;;;;;4968149;28;20047;-57
2022/06/13 12:23:19;;;;;;;4.68;1.13;;;20.50;70.80;;;;;;4966196;28;20046;-60
2022/06/13 12:26:28;;;;;;;7.88;2.63;;;20.60;69.60;;;;;;4968301;28;20051;-58
2022/06/13 12:29:22;;;;;;;0.95;0.60;;;20.30;69.90;;;;;;4969343;28;20086;-60
2022/06/13 12:31:51;;;;;;;;;;;20.30;69.10;;;;;;4997395;28;20038;-58
2022/06/13 12:34:26;;;;;;;5.30;1.80;;;20.30;71.90;;;;;;4968933;28;19977;-59
2022/06/13 12:36:59;;;;;;;7.22;1.20;;;20.30;72.20;;;;;;4964832;28;20043;-59
2022/06/13 12:39:47;;;;;;;9.00;1.20;;;20.70;72.50;;;;;;4962582;28;20465;-59
2022/06/13 12:42:27;;;;;;;4.57;1.20;;;21.10;69.80;;;;;;4968649;28;20047;-59
2022/06/13 12:45:18;;;;;;;5.53;0.98;;;21.00;66.70;;;;;;4967590;28;20046;-59
2022/06/13 12:47:48;;;;;;;3.97;1.33;;;20.90;67.50;;;;;;4968692;28;20101;-58
2022/06/13 12:50:21;;;;;;;3.28;1.10;;;20.90;69.40;;;;;;4968694;28;20127;-59
2022/06/13 12:53:24;;;;;;;4.15;1.40;;;20.70;69.60;;;;;;4968305;28;20081;-59
2022/06/13 12:56:22;;;;;;;11.23;1.77;;;20.40;70.30;;;;;;4964608;28;20082;-58
2022/06/13 12:59:06;;;;;;;8.57;1.58;;;20.50;68.40;;;;;;4930442;28;20082;-59
2022/06/13 13:01:56;;;;;;;5.90;1.10;;;20.50;70.10;;;;;;4994909;28;20132;-58
2022/06/13 13:04:38;;;;;;;8.75;1.50;;;20.50;70.90;;;;;;4968290;28;20082;-59
2022/06/13 13:07:26;;;;;;;5.40;1.40;;;20.80;71.00;;;;;;4968513;28;20537;-59
2022/06/13 13:10:18;;;;;;;4.28;1.10;;;21.10;70.90;;;;;;4967985;28;20043;-60
2022/06/13 13:13:03;;;;;;;5.40;1.15;;;20.90;68.70;;;;;;4963927;28;20098;-60
2022/06/13 13:15:30;;;;;;;3.70;1.52;;;20.60;71.10;;;;;;4968515;28;20090;-59
2022/06/13 13:18:27;;;;;;;3.53;1.33;;;20.60;71.10;;;;;;4967413;28;20054;-59
2022/06/13 13:21:06;;;;;;;4.40;1.70;;;20.70;70.00;;;;;;4965915;28;20130;-59
2022/06/13 13:23:39;;;;;;;7.07;1.77;;;20.80;69.80;;;;;;4965537;28;20355;-62
2022/06/13 13:26:34;;;;;;;5.15;1.35;;;20.80;69.60;;;;;;4966680;28;20065;-59
2022/06/13 13:29:14;;;;;;;11.90;1.67;;;20.90;69.30;;;;;;4967758;28;20046;-59
2022/06/13 13:31:43;;;;;;;2.17;1.10;;;20.90;69.60;;;;;;4960907;28;20137;-59
2022/06/13 13:34:29;;;;;;;3.15;1.45;;;21.20;69.80;;;;;;4965135;28;20070;-58
2022/06/13 13:37:19;;;;;;;2.70;1.67;;;21.00;66.70;;;;;;4967848;28;20114;-58
2022/06/13 13:39:56;;;;;;;3.60;1.55;;;20.70;67.10;;;;;;4963964;28;20042;-59
2022/06/13 13:42:29;;;;;;;8.35;2.30;;;20.60;70.40;;;;;;4967717;28;20348;-60
2022/06/13 13:44:58;;;;;;;8.52;1.52;;;20.80;70.30;;;;;;4966303;28;20054;-60
2022/06/13 13:47:25;;;;;;;5.85;2.03;;;21.10;71.80;;;;;;4967724;28;20079;-60
2022/06/13 13:49:59;;;;;;;6.05;1.55;;;21.60;70.00;;;;;;4967566;28;20133;-60
2022/06/13 13:52:32;;;;;;;2.50;1.67;;;21.90;68.50;;;;;;4996272;28;20062;-60